createdAt,value
2018-10-12T00:00:34.966Z,7.48
2018-10-12T00:01:34.938Z,7.42
2018-10-12T00:02:34.910Z,7.32
2018-10-12T00:03:34.882Z,7.40
2018-10-12T00:04:34.859Z,7.46
2018-10-12T00:05:34.825Z,7.40
2018-10-12T00:06:34.798Z,7.49
2018-10-12T00:07:34.770Z,7.43
2018-10-12T00:08:34.743Z,7.45
2018-10-12T00:09:34.715Z,7.32
2018-10-12T00:10:34.689Z,7.32
2018-10-12T00:11:34.659Z,7.31
2018-10-12T00:12:34.632Z,7.21
2018-10-12T00:13:34.604Z,7.25
2018-10-12T00:14:34.576Z,7.25
2018-10-12T00:15:34.551Z,7.20
2018-10-12T00:16:34.522Z,7.23
2018-10-12T00:17:34.491Z,7.17
2018-10-12T00:18:34.466Z,7.12
2018-10-12T00:19:34.436Z,7.15
2018-10-12T00:20:34.408Z,7.07
2018-10-12T00:21:34.379Z,7.24
2018-10-12T00:22:34.351Z,7.21
2018-10-12T00:23:34.325Z,7.28
2018-10-12T00:24:34.296Z,7.35
2018-10-12T00:25:34.270Z,7.48
2018-10-12T00:26:34.241Z,7.45
2018-10-12T00:27:34.211Z,7.61
2018-10-12T00:28:34.184Z,7.58
2018-10-12T00:29:34.155Z,7.64
2018-10-12T00:30:34.126Z,7.61
2018-10-12T00:31:34.105Z,7.68
2018-10-12T00:32:34.072Z,7.71
2018-10-12T00:33:34.043Z,7.67
2018-10-12T00:34:34.015Z,7.61
2018-10-12T00:35:33.987Z,7.52
2018-10-12T00:36:33.959Z,7.48
2018-10-12T00:37:33.930Z,7.43
2018-10-12T00:38:33.902Z,7.25
2018-10-12T00:39:33.874Z,7.21
2018-10-12T00:40:33.849Z,7.35
2018-10-12T00:41:33.818Z,7.37
2018-10-12T00:42:33.790Z,7.24
2018-10-12T00:43:33.764Z,7.21
2018-10-12T00:44:33.733Z,7.23
2018-10-12T00:45:33.706Z,7.17
2018-10-12T00:46:33.678Z,7.15
2018-10-12T00:47:33.649Z,7.09
2018-10-12T00:48:33.622Z,7.20
2018-10-12T00:49:33.638Z,7.09
2018-10-12T00:50:33.566Z,6.94
2018-10-12T00:51:33.537Z,6.97
2018-10-12T00:52:33.509Z,6.88
2018-10-12T00:53:33.480Z,6.99
2018-10-12T00:54:33.457Z,6.99
2018-10-12T00:55:33.426Z,6.94
2018-10-12T00:56:33.398Z,7.05
2018-10-12T00:57:33.366Z,7.12
2018-10-12T00:58:33.347Z,7.24
2018-10-12T00:59:33.311Z,7.31
2018-10-12T01:00:33.284Z,7.23
2018-10-12T01:01:33.253Z,7.20
2018-10-12T01:02:33.226Z,7.15
2018-10-12T01:03:33.199Z,7.13
2018-10-12T01:04:33.170Z,6.92
2018-10-12T01:05:33.140Z,6.91
2018-10-12T01:06:33.141Z,6.94
2018-10-12T01:07:33.084Z,6.98
2018-10-12T01:08:33.057Z,6.91
2018-10-12T01:09:33.037Z,6.98
2018-10-12T01:10:33.001Z,7.05
2018-10-12T01:11:33.015Z,6.95
2018-10-12T01:12:32.944Z,7.06
2018-10-12T01:13:32.915Z,6.92
2018-10-12T01:14:32.886Z,6.98
2018-10-12T01:15:32.859Z,7.03
2018-10-12T01:16:32.831Z,6.94
2018-10-12T01:17:32.800Z,6.99
2018-10-12T01:18:32.773Z,6.98
2018-10-12T01:19:32.745Z,6.94
2018-10-12T01:20:32.717Z,6.81
2018-10-12T01:21:32.687Z,6.77
2018-10-12T01:22:32.659Z,6.70
2018-10-12T01:23:32.633Z,6.76
2018-10-12T01:24:32.603Z,6.71
2018-10-12T01:25:32.575Z,6.70
2018-10-12T01:26:32.546Z,6.70
2018-10-12T01:27:32.519Z,6.77
2018-10-12T01:28:32.491Z,6.79
2018-10-12T01:29:32.462Z,6.89
2018-10-12T01:30:32.433Z,6.92
2018-10-12T01:31:32.406Z,6.84
2018-10-12T01:32:32.376Z,6.81
2018-10-12T01:33:32.351Z,6.74
2018-10-12T01:34:32.320Z,6.74
2018-10-12T01:35:32.294Z,6.70
2018-10-12T01:36:32.269Z,6.59
2018-10-12T01:37:32.234Z,6.61
2018-10-12T01:38:32.209Z,6.59
2018-10-12T01:39:32.180Z,6.54
2018-10-12T01:40:32.149Z,6.58
2018-10-12T01:41:32.121Z,6.58
2018-10-12T01:42:32.092Z,6.43
2018-10-12T01:43:32.068Z,6.62
2018-10-12T01:44:32.036Z,6.64
2018-10-12T01:45:32.007Z,6.66
2018-10-12T01:46:31.980Z,6.77
2018-10-12T01:47:31.951Z,6.73
2018-10-12T01:48:31.923Z,6.81
2018-10-12T01:49:31.895Z,6.91
2018-10-12T01:50:31.869Z,6.89
2018-10-12T01:51:31.837Z,6.89
2018-10-12T01:52:31.809Z,6.88
2018-10-12T01:53:31.778Z,6.99
2018-10-12T01:54:31.752Z,7.10
2018-10-12T01:55:31.723Z,7.09
2018-10-12T01:56:31.696Z,6.95
2018-10-12T01:57:31.666Z,6.97
2018-10-12T01:58:31.637Z,6.87
2018-10-12T01:59:31.616Z,6.81
2018-10-12T02:00:31.581Z,6.92
2018-10-12T02:01:31.551Z,6.92
2018-10-12T02:02:31.524Z,6.95
2018-10-12T02:03:31.496Z,6.99
2018-10-12T02:04:31.466Z,6.94
2018-10-12T02:05:31.436Z,7.07
2018-10-12T02:06:31.408Z,7.06
2018-10-12T02:07:31.381Z,6.79
2018-10-12T02:08:31.355Z,6.87
2018-10-12T02:09:31.323Z,6.87
2018-10-12T02:10:31.296Z,6.79
2018-10-12T02:11:31.266Z,6.73
2018-10-12T02:12:31.239Z,6.59
2018-10-12T02:13:31.209Z,6.52
2018-10-12T02:14:31.180Z,6.64
2018-10-12T02:15:31.152Z,6.55
2018-10-12T02:16:31.123Z,6.41
2018-10-12T02:17:31.095Z,6.48
2018-10-12T02:18:31.067Z,6.40
2018-10-12T02:19:31.039Z,6.48
2018-10-12T02:20:31.009Z,6.69
2018-10-12T02:21:30.981Z,6.76
2018-10-12T02:22:30.954Z,6.92
2018-10-12T02:23:30.925Z,6.91
2018-10-12T02:24:30.895Z,6.98
2018-10-12T02:25:30.867Z,6.92
2018-10-12T02:26:30.837Z,6.91
2018-10-12T02:27:30.809Z,6.92
2018-10-12T02:28:30.781Z,6.85
2018-10-12T02:29:30.752Z,6.81
2018-10-12T02:30:30.725Z,6.74
2018-10-12T02:31:30.703Z,6.69
2018-10-12T02:32:30.666Z,6.56
2018-10-12T02:33:30.636Z,6.52
2018-10-12T02:34:30.613Z,6.56
2018-10-12T02:35:30.581Z,6.46
2018-10-12T02:36:30.553Z,6.46
2018-10-12T02:37:30.524Z,6.51
2018-10-12T02:38:30.494Z,6.48
2018-10-12T02:39:30.466Z,6.43
2018-10-12T02:40:30.437Z,6.51
2018-10-12T02:41:30.409Z,6.48
2018-10-12T02:42:30.383Z,6.54
2018-10-12T02:43:30.351Z,6.49
2018-10-12T02:44:30.323Z,6.55
2018-10-12T02:45:30.292Z,6.48
2018-10-12T02:46:30.266Z,6.40
2018-10-12T02:47:30.239Z,6.38
2018-10-12T02:48:30.207Z,6.25
2018-10-12T02:49:30.179Z,6.27
2018-10-12T02:50:30.151Z,6.33
2018-10-12T02:51:30.122Z,6.28
2018-10-12T02:52:30.094Z,6.28
2018-10-12T02:53:30.064Z,6.30
2018-10-12T02:54:30.042Z,6.28
2018-10-12T02:55:30.007Z,6.27
2018-10-12T02:56:29.980Z,6.30
2018-10-12T02:57:29.948Z,6.33
2018-10-12T02:58:29.921Z,6.40
2018-10-12T02:59:29.894Z,6.41
2018-10-12T03:00:29.864Z,6.54
2018-10-12T03:01:29.836Z,6.56
2018-10-12T03:02:29.806Z,6.61
2018-10-12T03:03:29.778Z,6.73
2018-10-12T03:04:29.748Z,6.76
2018-10-12T03:05:29.719Z,6.79
2018-10-12T03:06:29.690Z,6.80
2018-10-12T03:07:29.700Z,6.76
2018-10-12T03:08:29.633Z,6.80
2018-10-12T03:09:29.604Z,6.89
2018-10-12T03:10:29.576Z,6.87
2018-10-12T03:11:29.548Z,6.91
2018-10-12T03:12:29.518Z,6.88
2018-10-12T03:13:29.498Z,6.81
2018-10-12T03:14:29.460Z,6.74
2018-10-12T03:15:29.435Z,6.62
2018-10-12T03:16:29.403Z,6.56
2018-10-12T03:17:29.372Z,6.51
2018-10-12T03:18:29.344Z,6.55
2018-10-12T03:19:29.317Z,6.44
2018-10-12T03:20:29.288Z,6.51
2018-10-12T03:21:29.259Z,6.34
2018-10-12T03:22:29.231Z,6.31
2018-10-12T03:23:29.201Z,6.33
2018-10-12T03:24:29.172Z,6.21
2018-10-12T03:25:29.144Z,6.25
2018-10-12T03:26:29.116Z,6.19
2018-10-12T03:27:29.087Z,6.15
2018-10-12T03:28:29.058Z,6.14
2018-10-12T03:29:29.032Z,6.17
2018-10-12T03:30:28.999Z,6.04
2018-10-12T03:31:28.973Z,6.08
2018-10-12T03:32:28.944Z,6.14
2018-10-12T03:33:28.914Z,6.17
2018-10-12T03:34:28.886Z,6.19
2018-10-12T03:35:28.856Z,6.25
2018-10-12T03:36:28.828Z,6.22
2018-10-12T03:37:28.799Z,6.36
2018-10-12T03:38:28.769Z,6.31
2018-10-12T03:39:28.742Z,6.34
2018-10-12T03:40:28.716Z,6.33
2018-10-12T03:41:28.684Z,6.33
2018-10-12T03:42:28.655Z,6.17
2018-10-12T03:43:28.627Z,6.18
2018-10-12T03:44:28.597Z,6.19
2018-10-12T03:45:28.569Z,6.14
2018-10-12T03:46:28.540Z,6.18
2018-10-12T03:47:28.511Z,6.17
2018-10-12T03:48:28.483Z,6.11
2018-10-12T03:49:28.454Z,6.11
2018-10-12T03:50:28.426Z,6.06
2018-10-12T03:51:28.397Z,6.14
2018-10-12T03:52:28.369Z,6.00
2018-10-12T03:53:28.337Z,6.17
2018-10-12T03:54:28.309Z,6.17
2018-10-12T03:55:28.281Z,6.19
2018-10-12T03:56:28.254Z,6.30
2018-10-12T03:57:28.224Z,6.27
2018-10-12T03:58:28.196Z,6.38
2018-10-12T03:59:28.169Z,6.34
2018-10-12T04:00:28.143Z,6.48
2018-10-12T04:01:28.109Z,6.51
2018-10-12T04:02:28.081Z,6.41
2018-10-12T04:03:28.052Z,6.44
2018-10-12T04:04:28.022Z,6.44
2018-10-12T04:05:27.992Z,6.25
2018-10-12T04:06:27.965Z,6.22
2018-10-12T04:07:27.937Z,6.27
2018-10-12T04:08:27.908Z,6.36
2018-10-12T04:09:27.879Z,6.27
2018-10-12T04:10:27.851Z,6.17
2018-10-12T04:11:27.825Z,6.22
2018-10-12T04:12:27.797Z,6.28
2018-10-12T04:13:27.765Z,6.31
2018-10-12T04:14:27.739Z,6.33
2018-10-12T04:15:27.706Z,6.27
2018-10-12T04:16:27.677Z,6.41
2018-10-12T04:17:27.647Z,6.41
2018-10-12T04:18:27.620Z,6.64
2018-10-12T04:19:27.589Z,6.61
2018-10-12T04:20:27.569Z,6.59
2018-10-12T04:21:27.535Z,6.58
2018-10-12T04:22:27.505Z,6.56
2018-10-12T04:23:27.476Z,6.55
2018-10-12T04:24:27.447Z,6.56
2018-10-12T04:25:27.418Z,6.55
2018-10-12T04:26:27.390Z,6.38
2018-10-12T04:27:27.361Z,6.43
2018-10-12T04:28:27.332Z,6.37
2018-10-12T04:29:27.301Z,6.33
2018-10-12T04:30:27.281Z,6.30
2018-10-12T04:31:27.249Z,6.28
2018-10-12T04:32:27.217Z,6.28
2018-10-12T04:33:27.189Z,6.27
2018-10-12T04:34:27.158Z,6.30
2018-10-12T04:35:27.135Z,6.21
2018-10-12T04:36:27.101Z,6.27
2018-10-12T04:37:27.072Z,6.18
2018-10-12T04:38:27.044Z,6.14
2018-10-12T04:39:27.014Z,6.12
2018-10-12T04:40:26.987Z,6.19
2018-10-12T04:41:26.956Z,6.14
2018-10-12T04:42:26.928Z,6.12
2018-10-12T04:43:26.898Z,6.04
2018-10-12T04:44:26.870Z,6.14
2018-10-12T04:45:26.842Z,6.17
2018-10-12T04:46:26.813Z,6.11
2018-10-12T04:47:26.883Z,6.25
2018-10-12T04:48:26.755Z,6.38
2018-10-12T04:49:26.725Z,6.28
2018-10-12T04:50:26.697Z,6.43
2018-10-12T04:51:26.669Z,6.52
2018-10-12T04:52:26.640Z,6.40
2018-10-12T04:53:26.613Z,6.43
2018-10-12T04:54:26.584Z,6.28
2018-10-12T04:55:26.553Z,6.31
2018-10-12T04:56:26.524Z,6.28
2018-10-12T04:57:26.496Z,6.27
2018-10-12T04:58:26.465Z,6.36
2018-10-12T04:59:26.436Z,6.22
2018-10-12T05:00:26.407Z,6.18
2018-10-12T05:01:26.378Z,6.14
2018-10-12T05:02:26.350Z,6.15
2018-10-12T05:03:26.322Z,6.14
2018-10-12T05:04:26.293Z,6.14
2018-10-12T05:05:26.263Z,6.17
2018-10-12T05:06:26.234Z,6.01
2018-10-12T05:07:26.204Z,6.18
2018-10-12T05:08:26.195Z,6.19
2018-10-12T05:09:26.150Z,6.08
2018-10-12T05:10:26.118Z,6.06
2018-10-12T05:11:26.090Z,6.09
2018-10-12T05:12:26.059Z,6.12
2018-10-12T05:13:26.031Z,6.04
2018-10-12T05:14:26.001Z,6.12
2018-10-12T05:15:25.975Z,6.08
2018-10-12T05:16:25.944Z,6.00
2018-10-12T05:17:25.914Z,6.00
2018-10-12T05:18:25.886Z,6.11
2018-10-12T05:19:25.857Z,6.06
2018-10-12T05:20:25.830Z,6.04
2018-10-12T05:21:25.803Z,6.06
2018-10-12T05:22:25.773Z,5.99
2018-10-12T05:23:25.741Z,6.12
2018-10-12T05:24:25.719Z,6.06
2018-10-12T05:25:25.685Z,6.12
2018-10-12T05:26:25.654Z,6.04
2018-10-12T05:27:25.630Z,6.08
2018-10-12T05:28:25.597Z,6.11
2018-10-12T05:29:25.578Z,6.22
2018-10-12T05:30:25.540Z,6.18
2018-10-12T05:31:25.510Z,6.27
2018-10-12T05:32:25.485Z,6.33
2018-10-12T05:33:25.453Z,6.30
2018-10-12T05:34:25.423Z,6.27
2018-10-12T05:35:25.399Z,6.27
2018-10-12T05:36:25.367Z,6.14
2018-10-12T05:37:25.336Z,6.15
2018-10-12T05:38:25.308Z,6.18
2018-10-12T05:39:25.278Z,6.14
2018-10-12T05:40:25.251Z,6.15
2018-10-12T05:41:25.224Z,5.99
2018-10-12T05:42:25.197Z,6.06
2018-10-12T05:43:25.408Z,5.99
2018-10-12T05:44:25.134Z,6.03
2018-10-12T05:45:25.105Z,6.01
2018-10-12T05:46:25.077Z,6.01
2018-10-12T05:47:25.046Z,5.99
2018-10-12T05:48:25.019Z,5.96
2018-10-12T05:49:24.989Z,5.96
2018-10-12T05:50:24.959Z,6.04
2018-10-12T05:51:24.932Z,6.15
2018-10-12T05:52:24.902Z,6.14
2018-10-12T05:53:24.873Z,6.12
2018-10-12T05:54:24.845Z,6.11
2018-10-12T05:55:24.816Z,6.17
2018-10-12T05:56:24.787Z,6.17
2018-10-12T05:57:24.759Z,6.19
2018-10-12T05:58:24.729Z,6.21
2018-10-12T05:59:24.702Z,6.21
2018-10-12T06:00:24.670Z,6.37
2018-10-12T06:01:24.671Z,6.25
2018-10-12T06:02:24.613Z,6.25
2018-10-12T06:03:24.588Z,6.38
2018-10-12T06:04:24.556Z,6.54
2018-10-12T06:05:24.526Z,6.69
2018-10-12T06:06:24.497Z,6.89
2018-10-12T06:07:24.469Z,6.91
2018-10-12T06:08:24.440Z,6.95
2018-10-12T06:09:24.424Z,7.02
2018-10-12T06:10:24.382Z,6.92
2018-10-12T06:11:24.441Z,6.91
2018-10-12T06:12:24.325Z,6.95
2018-10-12T06:13:24.295Z,7.09
2018-10-12T06:14:24.270Z,7.06
2018-10-12T06:15:24.299Z,7.20
2018-10-12T06:16:24.212Z,7.15
2018-10-12T06:17:24.182Z,7.10
2018-10-12T06:18:24.154Z,7.17
2018-10-12T06:19:24.126Z,7.28
2018-10-12T06:20:24.097Z,7.45
2018-10-12T06:21:24.077Z,7.67
2018-10-12T06:22:24.042Z,7.89
2018-10-12T06:23:24.012Z,8.15
2018-10-12T06:24:23.987Z,8.52
2018-10-12T06:25:23.955Z,8.94
2018-10-12T06:26:23.926Z,9.17
2018-10-12T06:27:23.899Z,9.31
2018-10-12T06:28:23.872Z,9.51
2018-10-12T06:29:23.847Z,9.32
2018-10-12T06:30:23.813Z,9.17
2018-10-12T06:31:23.788Z,9.18
2018-10-12T06:32:23.759Z,9.20
2018-10-12T06:33:23.729Z,9.05
2018-10-12T06:34:23.703Z,8.98
2018-10-12T06:35:23.675Z,9.04
2018-10-12T06:36:23.648Z,8.99
2018-10-12T06:37:23.621Z,8.98
2018-10-12T06:38:23.594Z,8.81
2018-10-12T06:39:23.568Z,8.95
2018-10-12T06:40:23.541Z,8.95
2018-10-12T06:41:23.576Z,8.96
2018-10-12T06:42:23.488Z,8.99
2018-10-12T06:43:23.459Z,9.10
2018-10-12T06:44:23.433Z,9.02
2018-10-12T06:45:23.404Z,9.17
2018-10-12T06:46:23.393Z,9.21
2018-10-12T06:47:23.354Z,9.47
2018-10-12T06:48:23.326Z,9.48
2018-10-12T06:49:23.299Z,9.56
2018-10-12T06:50:23.272Z,9.65
2018-10-12T06:51:23.250Z,9.65
2018-10-12T06:52:23.222Z,9.72
2018-10-12T06:53:23.192Z,9.75
2018-10-12T06:54:23.165Z,9.75
2018-10-12T06:55:23.138Z,9.74
2018-10-12T06:56:23.114Z,9.74
2018-10-12T06:57:23.084Z,9.75
2018-10-12T06:58:23.061Z,9.83
2018-10-12T06:59:23.033Z,9.72
2018-10-12T07:00:23.006Z,9.74
2018-10-12T07:01:22.982Z,9.81
2018-10-12T07:02:22.953Z,9.93
2018-10-12T07:03:23.176Z,10.08
2018-10-12T07:04:22.900Z,10.25
2018-10-12T07:05:22.874Z,10.41
2018-10-12T07:06:22.854Z,10.44
2018-10-12T07:07:22.822Z,10.56
2018-10-12T07:08:22.796Z,10.73
2018-10-12T07:09:22.768Z,10.68
2018-10-12T07:10:22.741Z,10.91
2018-10-12T07:11:22.716Z,11.02
2018-10-12T07:12:22.689Z,11.07
2018-10-12T07:13:22.663Z,11.17
2018-10-12T07:14:22.635Z,11.07
2018-10-12T07:15:22.611Z,11.10
2018-10-12T07:16:22.585Z,11.29
2018-10-12T07:17:22.559Z,11.42
2018-10-12T07:18:22.533Z,11.54
2018-10-12T07:19:22.524Z,11.70
2018-10-12T07:20:22.481Z,11.83
2018-10-12T07:21:22.455Z,11.80
2018-10-12T07:22:22.429Z,11.83
2018-10-12T07:23:22.403Z,11.82
2018-10-12T07:24:22.379Z,12.01
2018-10-12T07:25:22.356Z,12.19
2018-10-12T07:26:22.327Z,12.29
2018-10-12T07:27:22.302Z,12.54
2018-10-12T07:28:22.279Z,12.60
2018-10-12T07:29:22.253Z,12.75
2018-10-12T07:30:22.227Z,12.97
2018-10-12T07:31:22.222Z,13.30
2018-10-12T07:32:22.175Z,14.09
2018-10-12T07:33:22.150Z,14.77
2018-10-12T07:34:22.125Z,15.11
2018-10-12T07:35:22.100Z,15.53
2018-10-12T07:36:22.077Z,15.78
2018-10-12T07:37:22.069Z,16.35
2018-10-12T07:38:22.066Z,16.73
2018-10-12T07:39:22.003Z,16.88
2018-10-12T07:40:21.980Z,16.86
2018-10-12T07:41:21.957Z,16.91
2018-10-12T07:42:21.956Z,17.18
2018-10-12T07:43:21.909Z,17.48
2018-10-12T07:44:21.884Z,17.92
2018-10-12T07:45:21.862Z,18.45
2018-10-12T07:46:21.839Z,19.10
2018-10-12T07:47:21.850Z,19.78
2018-10-12T07:48:21.794Z,20.39
2018-10-12T07:49:21.771Z,20.88
2018-10-12T07:50:21.748Z,21.42
2018-10-12T07:51:21.728Z,21.52
2018-10-12T07:52:21.707Z,22.06
2018-10-12T07:53:21.707Z,22.25
2018-10-12T07:54:21.663Z,22.73
2018-10-12T07:55:21.656Z,22.79
2018-10-12T07:56:21.623Z,22.47
2018-10-12T07:57:21.601Z,22.43
2018-10-12T07:58:21.580Z,22.65
2018-10-12T07:59:21.560Z,22.73
2018-10-12T08:00:21.600Z,23.20
2018-10-12T08:01:21.521Z,23.02
2018-10-12T08:02:21.501Z,23.01
2018-10-12T08:03:21.480Z,23.31
2018-10-12T08:04:21.461Z,23.00
2018-10-12T08:05:21.442Z,23.17
2018-10-12T08:06:21.524Z,23.01
2018-10-12T08:07:21.404Z,23.20
2018-10-12T08:08:21.385Z,23.48
2018-10-12T08:09:21.366Z,23.55
2018-10-12T08:10:21.348Z,23.94
2018-10-12T08:11:21.327Z,24.49
2018-10-12T08:12:21.309Z,24.55
2018-10-12T08:13:21.290Z,24.76
2018-10-12T08:14:21.271Z,25.28
2018-10-12T08:15:21.254Z,25.69
2018-10-12T08:16:21.235Z,25.65
2018-10-12T08:17:21.215Z,24.43
2018-10-12T08:18:21.199Z,24.68
2018-10-12T08:19:21.181Z,25.02
2018-10-12T08:20:21.224Z,25.23
2018-10-12T08:21:21.145Z,25.57
2018-10-12T08:22:21.125Z,25.75
2018-10-12T08:23:21.108Z,25.99
2018-10-12T08:24:21.089Z,25.80
2018-10-12T08:25:21.072Z,25.83
2018-10-12T08:26:21.059Z,26.09
2018-10-12T08:27:21.038Z,26.20
2018-10-12T08:28:21.038Z,26.29
2018-10-12T08:29:21.003Z,26.29
2018-10-12T08:30:20.985Z,26.05
2018-10-12T08:31:20.982Z,25.79
2018-10-12T08:32:20.957Z,26.05
2018-10-12T08:33:20.933Z,26.13
2018-10-12T08:34:20.916Z,26.09
2018-10-12T08:35:20.900Z,26.30
2018-10-12T08:36:20.920Z,26.54
2018-10-12T08:37:20.881Z,26.57
2018-10-12T08:38:20.847Z,26.94
2018-10-12T08:39:20.832Z,27.18
2018-10-12T08:40:20.814Z,27.09
2018-10-12T08:41:20.797Z,27.29
2018-10-12T08:42:20.782Z,27.72
2018-10-12T08:43:20.767Z,28.00
2018-10-12T08:44:20.749Z,28.04
2018-10-12T08:45:20.730Z,28.27
2018-10-12T08:46:20.714Z,28.04
2018-10-12T08:47:20.699Z,27.77
2018-10-12T08:48:20.682Z,27.82
2018-10-12T08:49:20.665Z,27.39
2018-10-12T08:50:20.650Z,27.44
2018-10-12T08:51:20.634Z,27.81
2018-10-12T08:52:20.618Z,27.24
2018-10-12T08:53:20.607Z,27.43
2018-10-12T08:54:20.586Z,27.54
2018-10-12T08:55:20.603Z,27.81
2018-10-12T08:56:20.555Z,28.00
2018-10-12T08:57:20.538Z,28.06
2018-10-12T08:58:20.521Z,28.19
2018-10-12T08:59:20.510Z,28.33
2018-10-12T09:00:20.526Z,28.78
2018-10-12T09:01:20.474Z,29.04
2018-10-12T09:02:20.460Z,28.92
2018-10-12T09:03:20.445Z,28.30
2018-10-12T09:04:20.429Z,28.43
2018-10-12T09:05:20.413Z,28.40
2018-10-12T09:06:20.398Z,28.03
2018-10-12T09:07:20.383Z,28.02
2018-10-12T09:08:20.368Z,28.55
2018-10-12T09:09:20.351Z,28.74
2018-10-12T09:10:20.337Z,28.52
2018-10-12T09:11:20.322Z,28.95
2018-10-12T09:12:20.306Z,28.81
2018-10-12T09:13:20.291Z,28.44
2018-10-12T09:14:20.278Z,28.76
2018-10-12T09:15:20.261Z,29.21
2018-10-12T09:16:20.344Z,29.43
2018-10-12T09:17:20.229Z,29.60
2018-10-12T09:18:20.215Z,29.57
2018-10-12T09:19:20.201Z,29.78
2018-10-12T09:20:20.235Z,29.53
2018-10-12T09:21:20.173Z,29.55
2018-10-12T09:22:20.158Z,29.33
2018-10-12T09:23:20.146Z,28.83
2018-10-12T09:24:20.128Z,28.80
2018-10-12T09:25:20.114Z,28.95
2018-10-12T09:26:20.101Z,29.23
2018-10-12T09:27:20.088Z,29.28
2018-10-12T09:28:20.076Z,28.81
2018-10-12T09:29:20.059Z,29.00
2018-10-12T09:30:20.117Z,28.46
2018-10-12T09:31:20.075Z,28.22
2018-10-12T09:32:20.016Z,28.04
2018-10-12T09:33:20.006Z,28.00
2018-10-12T09:34:19.987Z,27.84
2018-10-12T09:35:19.975Z,27.54
2018-10-12T09:36:19.988Z,27.46
2018-10-12T09:37:19.942Z,27.09
2018-10-12T09:38:19.926Z,26.92
2018-10-12T09:39:19.916Z,26.91
2018-10-12T09:40:19.899Z,26.75
2018-10-12T09:41:19.882Z,27.09
2018-10-12T09:42:19.871Z,27.44
2018-10-12T09:43:19.934Z,27.59
2018-10-12T09:44:19.843Z,27.03
2018-10-12T09:45:19.825Z,27.36
2018-10-12T09:46:19.809Z,27.74
2018-10-12T09:47:19.794Z,28.18
2018-10-12T09:48:19.780Z,28.64
2018-10-12T09:49:19.764Z,28.64
2018-10-12T09:50:19.764Z,29.05
2018-10-12T09:51:19.739Z,28.90
2018-10-12T09:52:19.722Z,28.96
2018-10-12T09:53:19.706Z,29.11
2018-10-12T09:54:19.690Z,29.26
2018-10-12T09:55:19.677Z,29.60
2018-10-12T09:56:19.663Z,29.87
2018-10-12T09:57:19.649Z,30.02
2018-10-12T09:58:19.633Z,30.10
2018-10-12T09:59:19.618Z,29.55
2018-10-12T10:00:19.606Z,29.83
2018-10-12T10:01:19.592Z,30.20
2018-10-12T10:02:19.665Z,30.88
2018-10-12T10:03:19.563Z,30.60
2018-10-12T10:04:19.548Z,29.71
2018-10-12T10:05:19.542Z,29.23
2018-10-12T10:06:19.520Z,29.34
2018-10-12T10:07:19.507Z,29.80
2018-10-12T10:08:19.649Z,29.42
2018-10-12T10:09:19.485Z,28.51
2018-10-12T10:10:19.464Z,28.22
2018-10-12T10:11:19.450Z,27.79
2018-10-12T10:12:19.435Z,27.97
2018-10-12T10:13:19.422Z,28.17
2018-10-12T10:14:19.408Z,28.31
2018-10-12T10:15:19.458Z,28.76
2018-10-12T10:16:19.380Z,29.14
2018-10-12T10:17:19.363Z,29.28
2018-10-12T10:18:19.348Z,29.52
2018-10-12T10:19:19.396Z,29.92
2018-10-12T10:20:19.321Z,29.90
2018-10-12T10:21:19.304Z,29.63
2018-10-12T10:22:19.300Z,29.57
2018-10-12T10:23:19.278Z,28.89
2018-10-12T10:24:19.263Z,28.44
2018-10-12T10:25:19.246Z,28.74
2018-10-12T10:26:19.235Z,29.41
2018-10-12T10:27:19.221Z,30.29
2018-10-12T10:28:19.209Z,30.73
2018-10-12T10:29:19.276Z,30.89
2018-10-12T10:30:19.177Z,30.86
2018-10-12T10:31:19.166Z,30.80
2018-10-12T10:32:19.355Z,30.82
2018-10-12T10:33:19.134Z,30.34
2018-10-12T10:34:19.119Z,30.37
2018-10-12T10:35:19.107Z,30.05
2018-10-12T10:36:19.094Z,29.80
2018-10-12T10:37:19.078Z,30.16
2018-10-12T10:38:19.064Z,30.32
2018-10-12T10:39:19.050Z,30.95
2018-10-12T10:40:19.036Z,31.47
2018-10-12T10:41:19.021Z,31.56
2018-10-12T10:42:19.028Z,31.12
2018-10-12T10:43:18.993Z,31.48
2018-10-12T10:44:18.980Z,31.10
2018-10-12T10:45:18.964Z,30.70
2018-10-12T10:46:18.979Z,30.61
2018-10-12T10:47:18.938Z,29.94
2018-10-12T10:48:18.930Z,29.58
2018-10-12T10:49:18.909Z,29.78
2018-10-12T10:50:18.897Z,29.79
2018-10-12T10:51:18.882Z,29.36
2018-10-12T10:52:18.867Z,29.33
2018-10-12T10:53:18.854Z,29.55
2018-10-12T10:54:18.839Z,29.57
2018-10-12T10:55:18.826Z,29.43
2018-10-12T10:56:18.809Z,29.71
2018-10-12T10:57:18.794Z,30.53
2018-10-12T10:58:18.780Z,30.83
2018-10-12T10:59:18.766Z,31.26
2018-10-12T11:00:18.753Z,31.47
2018-10-12T11:01:18.737Z,31.31
2018-10-12T11:02:18.728Z,31.26
2018-10-12T11:03:18.709Z,31.14
2018-10-12T11:04:18.697Z,31.47
2018-10-12T11:05:18.681Z,31.56
2018-10-12T11:06:18.735Z,31.62
2018-10-12T11:07:18.654Z,31.70
2018-10-12T11:08:18.683Z,32.32
2018-10-12T11:09:18.625Z,32.15
2018-10-12T11:10:18.609Z,31.78
2018-10-12T11:11:18.596Z,31.92
2018-10-12T11:12:18.592Z,31.89
2018-10-12T11:13:18.624Z,32.07
2018-10-12T11:14:18.553Z,31.86
2018-10-12T11:15:18.539Z,32.11
2018-10-12T11:16:18.526Z,31.48
2018-10-12T11:17:18.510Z,31.07
2018-10-12T11:18:18.497Z,31.31
2018-10-12T11:19:18.482Z,30.54
2018-10-12T11:20:18.469Z,30.34
2018-10-12T11:21:18.453Z,30.39
2018-10-12T11:22:18.440Z,30.79
2018-10-12T11:23:18.427Z,31.31
2018-10-12T11:24:18.425Z,32.00
2018-10-12T11:25:18.397Z,32.47
2018-10-12T11:26:18.412Z,32.70
2018-10-12T11:27:18.374Z,33.09
2018-10-12T11:28:18.359Z,32.70
2018-10-12T11:29:18.346Z,32.00
2018-10-12T11:30:18.329Z,32.25
2018-10-12T11:31:18.328Z,32.55
2018-10-12T11:32:18.300Z,31.81
2018-10-12T11:33:18.286Z,30.46
2018-10-12T11:34:18.271Z,30.13
2018-10-12T11:35:18.256Z,29.92
2018-10-12T11:36:18.244Z,29.53
2018-10-12T11:37:18.227Z,29.68
2018-10-12T11:38:18.253Z,29.58
2018-10-12T11:39:18.203Z,30.11
2018-10-12T11:40:18.183Z,30.54
2018-10-12T11:41:18.169Z,30.89
2018-10-12T11:42:18.155Z,31.73
2018-10-12T11:43:18.144Z,32.26
2018-10-12T11:44:18.126Z,31.93
2018-10-12T11:45:18.161Z,31.56
2018-10-12T11:46:18.096Z,31.26
2018-10-12T11:47:18.082Z,31.09
2018-10-12T11:48:18.068Z,30.97
2018-10-12T11:49:18.053Z,30.16
2018-10-12T11:50:18.038Z,30.42
2018-10-12T11:51:18.025Z,30.65
2018-10-12T11:52:18.017Z,30.86
2018-10-12T11:53:17.994Z,31.14
2018-10-12T11:54:17.979Z,31.26
2018-10-12T11:55:17.967Z,31.54
2018-10-12T11:56:17.951Z,31.84
2018-10-12T11:57:17.934Z,32.10
2018-10-12T11:58:17.920Z,32.59
2018-10-12T11:59:17.905Z,32.22
2018-10-12T12:00:17.893Z,32.14
2018-10-12T12:01:17.878Z,32.06
2018-10-12T12:02:17.999Z,32.69
2018-10-12T12:03:17.849Z,32.57
2018-10-12T12:04:17.833Z,32.72
2018-10-12T12:05:17.819Z,32.29
2018-10-12T12:06:17.805Z,31.25
2018-10-12T12:07:17.805Z,30.27
2018-10-12T12:08:17.775Z,30.08
2018-10-12T12:09:17.761Z,30.55
2018-10-12T12:10:17.747Z,30.98
2018-10-12T12:11:17.733Z,30.62
2018-10-12T12:12:17.719Z,30.79
2018-10-12T12:13:17.713Z,31.16
2018-10-12T12:14:17.692Z,31.12
2018-10-12T12:15:17.673Z,31.44
2018-10-12T12:16:17.658Z,31.51
2018-10-12T12:17:17.644Z,31.99
2018-10-12T12:18:17.632Z,32.22
2018-10-12T12:19:17.654Z,32.26
2018-10-12T12:20:17.599Z,32.22
2018-10-12T12:21:17.584Z,31.78
2018-10-12T12:22:17.570Z,31.28
2018-10-12T12:23:17.556Z,31.13
2018-10-12T12:24:17.542Z,30.31
2018-10-12T12:25:17.526Z,30.65
2018-10-12T12:26:17.511Z,30.24
2018-10-12T12:27:17.496Z,29.83
2018-10-12T12:28:17.483Z,30.20
2018-10-12T12:29:17.467Z,30.99
2018-10-12T12:30:17.452Z,31.66
2018-10-12T12:31:17.437Z,32.01
2018-10-12T12:32:17.423Z,31.80
2018-10-12T12:33:17.407Z,31.06
2018-10-12T12:34:17.393Z,30.77
2018-10-12T12:35:17.740Z,31.06
2018-10-12T12:36:17.508Z,31.43
2018-10-12T12:37:17.353Z,31.28
2018-10-12T12:38:17.331Z,31.80
2018-10-12T12:39:17.318Z,31.69
2018-10-12T12:40:17.303Z,32.06
2018-10-12T12:41:17.287Z,32.48
2018-10-12T12:42:17.273Z,32.26
2018-10-12T12:43:17.258Z,31.38
2018-10-12T12:44:17.244Z,31.50
2018-10-12T12:45:17.228Z,31.13
2018-10-12T12:46:17.214Z,30.99
2018-10-12T12:47:17.276Z,31.46
2018-10-12T12:48:17.456Z,31.93
2018-10-12T12:49:17.550Z,31.63
2018-10-12T12:50:17.153Z,31.65
2018-10-12T12:51:17.139Z,31.36
2018-10-12T12:52:17.131Z,31.39
2018-10-12T12:53:17.109Z,31.29
2018-10-12T12:54:17.095Z,31.38
2018-10-12T12:55:17.080Z,31.06
2018-10-12T12:56:17.063Z,30.83
2018-10-12T12:57:17.053Z,31.44
2018-10-12T12:58:17.034Z,32.08
2018-10-12T12:59:17.019Z,32.29
2018-10-12T13:00:17.059Z,32.40
2018-10-12T13:01:16.991Z,32.93
2018-10-12T13:02:16.974Z,33.03
2018-10-12T13:03:16.960Z,32.92
2018-10-12T13:04:16.946Z,32.23
2018-10-12T13:05:16.934Z,32.01
2018-10-12T13:06:16.937Z,31.50